createdAt,value
2022-12-11T00:00:33.261Z,100869.59
2022-12-11T00:03:09.136Z,100880.50
2022-12-11T00:05:45.404Z,100870.28
2022-12-11T00:08:17.997Z,100870.28
2022-12-11T00:10:50.908Z,100871.25
2022-12-11T00:13:23.598Z,100866.59
2022-12-11T00:15:59.057Z,100865.06
2022-12-11T00:18:31.782Z,100863.22
2022-12-11T00:21:07.681Z,100865.72
2022-12-11T00:23:41.113Z,100867.25
2022-12-11T00:26:16.006Z,100866.97
2022-12-11T00:28:52.918Z,100866.38
2022-12-11T00:31:25.475Z,100864.84
2022-12-11T00:33:58.025Z,100861.75
2022-12-11T00:36:30.551Z,100865.47
2022-12-11T00:39:04.668Z,100861.47
2022-12-11T00:41:37.270Z,100857.09
2022-12-11T00:44:09.767Z,100856.03
2022-12-11T00:46:42.345Z,100866.16
2022-12-11T00:49:14.903Z,100866.16
2022-12-11T00:51:47.413Z,100861.53
2022-12-11T00:54:20.280Z,100868.34
2022-12-11T00:56:55.013Z,100858.13
2022-12-11T00:59:29.144Z,100858.59
2022-12-11T01:02:01.730Z,100862.94
2022-12-11T01:04:36.971Z,100858.47
2022-12-11T01:07:09.618Z,100862.22
2022-12-11T01:10:00.586Z,100858.19
2022-12-11T01:12:33.074Z,100850.31
2022-12-11T01:15:06.340Z,100857.63
2022-12-11T01:17:38.963Z,100855.59
2022-12-11T01:20:12.349Z,100857.31
2022-12-11T01:22:45.026Z,100863.19
2022-12-11T01:25:17.564Z,100862.09
2022-12-11T01:27:52.694Z,100865.09
2022-12-11T01:30:26.138Z,100863.53
2022-12-11T01:32:58.905Z,100862.75
2022-12-11T01:35:31.584Z,100867.59
2022-12-11T01:38:04.074Z,100857.66
2022-12-11T01:40:36.590Z,100857.66
2022-12-11T01:43:11.569Z,100866.66
2022-12-11T01:45:48.013Z,100861.22
2022-12-11T01:48:31.440Z,100859.81
2022-12-11T01:51:05.594Z,100858.44
2022-12-11T01:53:42.465Z,100852.84
2022-12-11T01:56:15.361Z,100845.09
2022-12-11T01:58:55.663Z,100844.97
2022-12-11T02:01:34.524Z,100849.00
2022-12-11T02:04:09.328Z,100849.97
2022-12-11T02:06:47.298Z,100852.44
2022-12-11T02:09:29.038Z,100849.97
2022-12-11T02:13:05.001Z,100851.16
2022-12-11T02:16:05.906Z,100860.81
2022-12-11T02:19:02.076Z,100857.88
2022-12-11T02:21:43.446Z,100846.25
2022-12-11T02:24:43.040Z,100849.34
2022-12-11T02:27:32.272Z,100847.78
2022-12-11T02:30:08.944Z,100846.63
2022-12-11T02:32:57.533Z,100838.34
2022-12-11T02:35:46.029Z,100842.22
2022-12-11T02:38:30.014Z,100843.53
2022-12-11T02:41:07.184Z,100841.97
2022-12-11T02:43:43.077Z,100841.66
2022-12-11T02:46:20.631Z,100823.09
2022-12-11T02:48:55.820Z,100832.69
2022-12-11T02:51:38.272Z,100830.19
2022-12-11T02:54:20.767Z,100834.25
2022-12-11T02:57:08.505Z,100830.03
2022-12-11T02:59:45.109Z,100834.72
2022-12-11T03:02:18.858Z,100835.22
2022-12-11T03:04:51.787Z,100833.94
2022-12-11T03:07:34.997Z,100829.63
2022-12-11T03:10:15.412Z,100825.75
2022-12-11T03:12:54.884Z,100817.88
2022-12-11T03:16:04.122Z,100815.38
2022-12-11T03:18:52.821Z,100810.72
2022-12-11T03:21:43.290Z,100812.59
2022-12-11T03:24:43.953Z,100808.84
2022-12-11T03:27:45.185Z,100809.78
2022-12-11T03:30:24.084Z,100820.03
2022-12-11T03:33:06.761Z,100812.31
2022-12-11T03:35:44.110Z,100813.88
2022-12-11T03:38:31.008Z,100807.53
2022-12-11T03:41:07.798Z,100811.53
2022-12-11T03:43:41.585Z,100809.50
2022-12-11T03:46:16.989Z,100800.88
2022-12-11T03:48:51.581Z,100810.78
2022-12-11T03:51:25.852Z,100804.88
2022-12-11T03:53:59.672Z,100804.88
2022-12-11T03:56:36.947Z,100796.81
2022-12-11T03:59:10.069Z,100788.91
2022-12-11T04:01:42.660Z,100784.59
2022-12-11T04:04:15.521Z,100776.69
2022-12-11T04:06:48.218Z,100777.66
2022-12-11T04:09:20.708Z,100774.88
2022-12-11T04:11:53.264Z,100776.09
2022-12-11T04:14:44.413Z,100777.34
2022-12-11T04:17:37.054Z,100781.38
2022-12-11T04:20:31.292Z,100783.69
2022-12-11T04:23:34.695Z,100786.00
2022-12-11T04:26:17.777Z,100782.16
2022-12-11T04:28:50.965Z,100781.84
2022-12-11T04:31:23.564Z,100776.59
2022-12-11T04:33:56.198Z,100778.28
2022-12-11T04:36:28.753Z,100783.56
2022-12-11T04:39:01.339Z,100779.22
2022-12-11T04:41:35.734Z,100785.56
2022-12-11T04:44:09.096Z,100773.34
2022-12-11T04:46:41.717Z,100777.41
2022-12-11T04:49:14.372Z,100782.66
2022-12-11T04:51:46.942Z,100791.03
2022-12-11T04:54:19.465Z,100789.78
2022-12-11T04:56:51.991Z,100778.31
2022-12-11T04:59:24.504Z,100790.25
2022-12-11T05:01:57.628Z,100776.47
2022-12-11T05:04:34.902Z,100776.19
2022-12-11T05:07:09.224Z,100772.13
2022-12-11T05:09:41.829Z,100768.59
2022-12-11T05:12:14.309Z,100769.34
2022-12-11T05:14:46.933Z,100776.19
2022-12-11T05:17:21.566Z,100775.88
2022-12-11T05:19:54.250Z,100767.50
2022-12-11T05:22:26.738Z,100765.19
2022-12-11T05:24:59.269Z,100763.16
2022-12-11T05:27:31.847Z,100760.06
2022-12-11T05:30:05.213Z,100760.06
2022-12-11T05:32:37.696Z,100760.06
2022-12-11T05:35:10.403Z,100759.50
2022-12-11T05:37:43.092Z,100752.06
2022-12-11T05:40:15.754Z,100752.34
2022-12-11T05:42:48.228Z,100742.47
2022-12-11T05:45:20.771Z,100751.59
2022-12-11T05:47:53.297Z,100759.50
2022-12-11T05:50:25.789Z,100770.47
2022-12-11T05:52:58.309Z,100766.25
2022-12-11T05:55:35.220Z,100770.91
2022-12-11T05:58:07.750Z,100777.09
2022-12-11T06:00:42.468Z,100774.88
2022-12-11T06:03:15.818Z,100769.44
2022-12-11T06:05:49.216Z,100764.31
2022-12-11T06:08:21.740Z,100765.47
2022-12-11T06:10:54.318Z,100770.91
2022-12-11T06:13:27.349Z,100771.31
2022-12-11T06:16:06.340Z,100772.69
2022-12-11T06:18:43.903Z,100775.59
2022-12-11T06:21:23.999Z,100764.38
2022-12-11T06:24:00.596Z,100771.34
2022-12-11T06:26:33.141Z,100763.34
2022-12-11T06:29:09.230Z,100763.00
2022-12-11T06:31:45.304Z,100759.38
2022-12-11T06:34:17.874Z,100770.22
2022-12-11T06:36:50.401Z,100770.59
2022-12-11T06:39:22.901Z,100771.47
2022-12-11T06:41:55.457Z,100779.00
2022-12-11T06:44:28.122Z,100768.72
2022-12-11T06:47:00.676Z,100766.00
2022-12-11T06:49:33.289Z,100761.28
2022-12-11T06:52:06.198Z,100767.75
2022-12-11T06:54:38.791Z,100758.41
2022-12-11T06:57:11.387Z,100758.97
2022-12-11T06:59:44.336Z,100748.09
2022-12-11T07:02:19.470Z,100748.38
2022-12-11T07:04:55.267Z,100754.56
2022-12-11T07:07:28.064Z,100768.91
2022-12-11T07:10:07.661Z,100778.06
2022-12-11T07:12:41.024Z,100768.72
2022-12-11T07:15:13.946Z,100770.28
2022-12-11T07:17:46.713Z,100778.94
2022-12-11T07:20:19.193Z,100774.16
2022-12-11T07:22:51.669Z,100782.03
2022-12-11T07:25:24.185Z,100787.44
2022-12-11T07:27:57.633Z,100785.91
2022-12-11T07:30:30.540Z,100789.75
2022-12-11T07:33:03.179Z,100794.09
2022-12-11T07:35:36.376Z,100793.78
2022-12-11T07:38:08.956Z,100793.63
2022-12-11T07:40:41.550Z,100785.69
2022-12-11T07:43:15.238Z,100798.72
2022-12-11T07:45:48.038Z,100792.34
2022-12-11T07:48:20.659Z,100792.84
2022-12-11T07:50:54.707Z,100791.09
2022-12-11T07:53:27.246Z,100786.28
2022-12-11T07:55:59.921Z,100787.53
2022-12-11T07:58:32.742Z,100790.63
2022-12-11T08:01:10.668Z,100794.19
2022-12-11T08:03:43.677Z,100786.09
2022-12-11T08:06:16.897Z,100783.59
2022-12-11T08:08:49.661Z,100783.06
2022-12-11T08:11:23.353Z,100784.81
2022-12-11T08:13:56.092Z,100791.75
2022-12-11T08:16:29.697Z,100787.13
2022-12-11T08:19:02.367Z,100777.78
2022-12-11T08:21:34.877Z,100787.72
2022-12-11T08:24:09.083Z,100791.75
2022-12-11T08:26:41.580Z,100799.13
2022-12-11T08:29:19.963Z,100793.59
2022-12-11T08:31:52.485Z,100792.63
2022-12-11T08:34:25.083Z,100792.34
2022-12-11T08:36:57.592Z,100792.63
2022-12-11T08:39:30.301Z,100794.19
2022-12-11T08:42:02.956Z,100792.91
2022-12-11T08:44:35.542Z,100791.66
2022-12-11T08:47:09.828Z,100781.91
2022-12-11T08:49:42.403Z,100781.44
2022-12-11T08:52:14.929Z,100784.50
2022-12-11T08:54:48.308Z,100782.19
2022-12-11T08:57:20.844Z,100789.13
2022-12-11T08:59:53.434Z,100787.59
2022-12-11T09:02:26.080Z,100782.00
2022-12-11T09:04:59.084Z,100779.50
2022-12-11T09:07:31.583Z,100779.78
2022-12-11T09:10:06.890Z,100785.84
2022-12-11T09:12:39.606Z,100785.66
2022-12-11T09:15:12.556Z,100778.81
2022-12-11T09:17:48.180Z,100785.44
2022-12-11T09:20:20.852Z,100786.25
2022-12-11T11:12:28.401Z,100727.25
2022-12-11T11:15:13.342Z,100727.72
2022-12-11T11:17:55.728Z,100728.78
2022-12-11T11:20:31.537Z,100724.41
2022-12-11T11:23:15.622Z,100727.31
2022-12-11T11:26:01.870Z,100717.69
2022-12-11T11:28:48.047Z,100720.47
2022-12-11T11:31:31.506Z,100715.75
2022-12-11T11:34:18.720Z,100724.97
2022-12-11T11:37:01.126Z,100714.88
2022-12-11T11:39:45.205Z,100710.28
2022-12-11T11:42:30.140Z,100714.56
2022-12-11T11:45:17.512Z,100707.84
2022-12-11T11:48:34.130Z,100716.88
2022-12-11T11:51:16.132Z,100712.75
2022-12-11T11:53:51.900Z,100708.34
2022-12-11T11:56:37.575Z,100706.06
2022-12-11T11:59:34.118Z,100697.00
2022-12-11T12:02:17.688Z,100698.75
2022-12-11T12:04:51.978Z,100698.38
2022-12-11T12:07:52.507Z,100702.78
2022-12-11T12:10:39.975Z,100696.03
2022-12-11T12:13:55.588Z,100693.47
2022-12-11T12:16:53.766Z,100695.16
2022-12-11T12:19:54.805Z,100691.78
2022-12-11T12:23:05.123Z,100688.81
2022-12-11T12:25:49.312Z,100693.69
2022-12-11T12:29:07.428Z,100690.59
2022-12-11T12:31:53.599Z,100692.22
2022-12-11T12:35:14.540Z,100690.13
2022-12-11T12:38:40.355Z,100695.72
2022-12-11T12:41:22.651Z,100690.19
2022-12-11T12:44:13.881Z,100682.16
2022-12-11T12:46:58.912Z,100693.06
2022-12-11T12:49:42.980Z,100687.28
2022-12-11T12:52:21.437Z,100688.31
2022-12-11T12:55:16.164Z,100686.78
2022-12-11T12:57:52.846Z,100689.72
2022-12-11T13:00:29.479Z,100683.84
2022-12-11T13:03:13.930Z,100676.97
2022-12-11T13:05:58.150Z,100691.31
2022-12-11T13:08:46.394Z,100677.81
2022-12-11T13:11:30.569Z,100674.16
2022-12-11T13:14:27.915Z,100682.66
2022-12-11T13:17:21.347Z,100680.63
2022-12-11T13:20:22.107Z,100681.03
2022-12-11T13:23:06.842Z,100672.00
2022-12-11T13:25:49.337Z,100679.13
2022-12-11T13:28:38.800Z,100676.63
2022-12-11T13:31:14.223Z,100681.38
2022-12-11T13:33:51.974Z,100685.72
2022-12-11T13:36:33.859Z,100680.34
2022-12-11T13:39:30.956Z,100691.28
2022-12-11T13:42:20.599Z,100691.88
2022-12-11T13:44:53.765Z,100692.94
2022-12-11T13:47:29.024Z,100678.38
2022-12-11T13:50:34.947Z,100688.53
2022-12-11T13:53:17.696Z,100693.00
2022-12-11T13:55:58.606Z,100696.88
2022-12-11T13:58:47.333Z,100694.59
2022-12-11T14:01:35.461Z,100691.56
2022-12-11T14:04:15.955Z,100701.88
2022-12-11T14:06:49.847Z,100693.50
2022-12-11T14:09:27.434Z,100697.84
2022-12-11T14:12:00.329Z,100700.66
2022-12-11T14:14:45.845Z,100707.56
2022-12-11T14:17:26.770Z,100710.59
2022-12-11T14:20:07.454Z,100711.34
2022-12-11T14:22:40.194Z,100712.13
2022-12-11T14:25:27.466Z,100704.56
2022-12-11T14:28:01.551Z,100704.00
2022-12-11T14:30:37.092Z,100706.63
2022-12-11T14:33:11.512Z,100701.97
2022-12-11T14:35:45.935Z,100706.81
2022-12-11T14:38:33.219Z,100709.41
2022-12-11T14:41:16.944Z,100712.69
2022-12-11T14:43:56.715Z,100717.00
2022-12-11T14:46:40.132Z,100718.56
2022-12-11T14:49:31.837Z,100719.81
2022-12-11T14:52:06.275Z,100714.22
2022-12-11T14:54:45.609Z,100719.81
2022-12-11T14:57:24.862Z,100713.44
2022-12-11T14:59:58.352Z,100719.81
2022-12-11T15:02:36.395Z,100726.97
2022-12-11T15:05:19.403Z,100722.88
2022-12-11T15:08:26.670Z,100723.69
2022-12-11T15:11:15.304Z,100721.38
2022-12-11T15:13:56.559Z,100725.97
2022-12-11T15:16:37.208Z,100724.38
2022-12-11T15:19:36.551Z,100736.69
2022-12-11T15:22:15.236Z,100734.88
2022-12-11T15:24:52.828Z,100738.16
2022-12-11T15:27:37.448Z,100737.19
2022-12-11T15:30:28.419Z,100733.13
2022-12-11T15:33:09.794Z,100728.50
2022-12-11T15:35:58.186Z,100725.78
2022-12-11T15:38:40.601Z,100732.84
2022-12-11T15:41:24.511Z,100736.91
2022-12-11T15:43:59.083Z,100737.19
2022-12-11T15:46:36.716Z,100721.38
2022-12-11T15:49:13.196Z,100732.09
2022-12-11T15:51:46.286Z,100744.59
2022-12-11T15:54:22.960Z,100732.38
2022-12-11T15:56:55.581Z,100736.22
2022-12-11T15:59:28.109Z,100743.84
2022-12-11T16:02:00.679Z,100739.50
2022-12-11T16:04:35.269Z,100741.53
2022-12-11T16:07:29.901Z,100740.38
2022-12-11T16:10:04.834Z,100735.44
2022-12-11T16:12:38.454Z,100743.34
2022-12-11T16:15:17.483Z,100741.56
2022-12-11T16:18:08.113Z,100739.84
2022-12-11T16:20:45.836Z,100740.81
2022-12-11T16:23:19.731Z,100729.84
2022-12-11T16:25:52.570Z,100733.69
2022-12-11T16:28:25.144Z,100729.34
2022-12-11T16:30:57.958Z,100724.16
2022-12-11T16:33:30.570Z,100734.16
2022-12-11T16:36:11.526Z,100720.66
2022-12-11T16:38:53.593Z,100727.81
2022-12-11T16:41:26.923Z,100726.97
2022-12-11T16:44:01.227Z,100738.25
2022-12-11T16:46:34.577Z,100737.72
2022-12-11T16:49:07.330Z,100728.09
2022-12-11T16:51:40.024Z,100733.69
2022-12-11T16:54:12.941Z,100737.72
2022-12-11T16:56:46.643Z,100733.13
2022-12-11T16:59:19.432Z,100728.09
2022-12-11T17:01:52.230Z,100724.78
2022-12-11T17:04:24.992Z,100729.63
2022-12-11T17:06:57.617Z,100727.28
2022-12-11T17:09:30.764Z,100727.53
2022-12-11T17:12:04.375Z,100732.13
2022-12-11T17:14:37.295Z,100716.31
2022-12-11T17:17:10.036Z,100729.06
2022-12-11T17:19:48.487Z,100725.00
2022-12-11T17:22:22.328Z,100720.38
2022-12-11T17:24:54.951Z,100717.84
2022-12-11T17:27:27.647Z,100701.47
2022-12-11T17:30:00.252Z,100707.66
2022-12-11T17:32:32.785Z,100713.25
2022-12-11T17:35:06.353Z,100715.28
2022-12-11T17:37:38.947Z,100718.09
2022-12-11T17:40:11.974Z,100711.66
2022-12-11T17:42:44.960Z,100728.50
2022-12-11T17:45:17.903Z,100721.38
2022-12-11T17:47:50.469Z,100730.03
2022-12-11T17:50:23.024Z,100712.13
2022-12-11T17:52:55.560Z,100721.38
2022-12-11T17:55:28.279Z,100724.44
2022-12-11T17:58:00.949Z,100720.59
2022-12-11T18:00:33.639Z,100718.00
2022-12-11T18:03:07.390Z,100722.34
2022-12-11T18:05:46.021Z,100727.16
2022-12-11T18:08:22.611Z,100726.13
2022-12-11T18:10:56.280Z,100729.41
2022-12-11T18:13:29.500Z,100724.28
2022-12-11T18:16:10.409Z,100725.53
2022-12-11T18:18:43.833Z,100716.81
2022-12-11T18:21:27.163Z,100723.94
2022-12-11T18:24:01.084Z,100720.84
2022-12-11T18:26:33.732Z,100730.03
2022-12-11T18:29:06.903Z,100724.91
2022-12-11T18:31:42.648Z,100727.25
2022-12-11T18:34:17.976Z,100724.16
2022-12-11T18:36:51.801Z,100718.00
2022-12-11T18:39:25.529Z,100717.28
2022-12-11T18:42:30.610Z,100715.47
2022-12-11T18:44:50.619Z,100709.66
2022-12-11T18:47:24.299Z,100709.88
2022-12-11T18:50:00.122Z,100716.03
2022-12-11T18:52:37.742Z,100714.47
2022-12-11T18:55:10.873Z,100706.38
2022-12-11T18:57:43.681Z,100709.44
2022-12-11T19:00:17.736Z,100713.50
2022-12-11T19:02:52.122Z,100717.97
2022-12-11T19:05:24.840Z,100699.00
2022-12-11T19:07:57.525Z,100705.44
2022-12-11T19:10:30.148Z,100706.94
2022-12-11T19:13:02.851Z,100713.41
2022-12-11T19:15:40.246Z,100704.41
2022-12-11T19:18:12.925Z,100711.34
2022-12-11T19:20:49.989Z,100711.34
2022-12-11T19:23:25.231Z,100709.81
2022-12-11T19:25:57.824Z,100706.94
2022-12-11T19:28:31.095Z,100708.84
2022-12-11T19:31:03.913Z,100704.56
2022-12-11T19:33:36.772Z,100706.09
2022-12-11T19:36:16.480Z,100706.09
2022-12-11T19:38:50.152Z,100707.16
2022-12-11T19:41:29.657Z,100715.06
2022-12-11T19:44:02.333Z,100717.09
2022-12-11T19:46:35.611Z,100703.25
2022-12-11T19:49:08.287Z,100714.22
2022-12-11T19:51:43.361Z,100715.00
2022-12-11T19:54:17.774Z,100725.69
2022-12-11T19:56:50.664Z,100722.13
2022-12-11T19:59:23.218Z,100719.31
2022-12-11T20:01:55.876Z,100716.53
2022-12-11T20:04:28.753Z,100708.06
2022-12-11T20:07:01.561Z,100717.53
2022-12-11T20:09:34.357Z,100725.16
2022-12-11T20:12:10.268Z,100717.72
2022-12-11T20:14:42.944Z,100718.00
2022-12-11T20:17:15.826Z,100721.00
2022-12-11T20:19:48.412Z,100725.06
2022-12-11T20:22:20.915Z,100722.16
2022-12-11T20:24:53.470Z,100720.66
2022-12-11T20:27:26.301Z,100731.84
2022-12-11T20:29:59.180Z,100725.97
2022-12-11T20:32:34.290Z,100723.88
2022-12-11T20:35:08.621Z,100734.56
2022-12-11T20:37:41.149Z,100730.72
2022-12-11T20:40:14.361Z,100729.66
2022-12-11T20:42:46.905Z,100733.22
2022-12-11T20:45:19.546Z,100738.78
2022-12-11T20:47:52.144Z,100743.59
2022-12-11T20:50:24.663Z,100736.19
2022-12-11T20:52:57.294Z,100729.72
2022-12-11T20:55:29.968Z,100732.53
2022-12-11T20:58:02.669Z,100730.25
2022-12-11T21:00:39.860Z,100720.44
2022-12-11T21:03:12.614Z,100729.28
2022-12-11T21:05:46.589Z,100745.13
2022-12-11T21:08:27.025Z,100748.19
2022-12-11T21:10:59.552Z,100745.31
2022-12-11T21:13:34.029Z,100742.16
2022-12-11T21:16:09.049Z,100746.22
2022-12-11T21:18:43.418Z,100738.00
2022-12-11T21:21:16.612Z,100745.63
2022-12-11T21:23:49.497Z,100748.72
2022-12-11T21:26:26.242Z,100748.84
2022-12-11T21:29:09.471Z,100745.53
2022-12-11T21:32:00.597Z,100751.53
2022-12-11T21:34:38.376Z,100753.41
2022-12-11T21:37:16.892Z,100755.91
2022-12-11T21:39:49.980Z,100737.09
2022-12-11T21:42:52.261Z,100752.88
2022-12-11T21:48:29.319Z,100746.84
2022-12-11T21:51:15.207Z,100745.97
2022-12-11T21:54:01.231Z,100748.09
2022-12-11T21:56:34.254Z,100748.97
2022-12-11T21:59:07.370Z,100748.84
2022-12-11T22:01:46.456Z,100752.13
2022-12-11T22:04:19.111Z,100751.06
2022-12-11T22:06:51.908Z,100747.41
2022-12-11T22:09:24.651Z,100748.66
2022-12-11T22:11:58.801Z,100750.78
2022-12-11T22:14:31.518Z,100751.75
2022-12-11T22:17:04.106Z,100747.16
2022-12-11T22:19:36.668Z,100741.72
2022-12-11T22:22:09.305Z,100734.50
2022-12-11T22:24:41.834Z,100750.59
2022-12-11T22:27:16.823Z,100754.66
2022-12-11T22:29:53.266Z,100742.91
2022-12-11T22:32:27.462Z,100758.41
2022-12-11T22:35:00.101Z,100760.75
2022-12-11T22:37:32.835Z,100757.16
2022-12-11T22:40:06.280Z,100761.88
2022-12-11T22:42:39.173Z,100769.28
2022-12-11T22:45:12.037Z,100764.09
2022-12-11T22:47:44.882Z,100755.41
2022-12-11T22:50:18.117Z,100758.50
2022-12-11T22:52:50.667Z,100756.19
2022-12-11T22:55:23.269Z,100757.16
2022-12-11T22:57:55.995Z,100741.25
2022-12-11T23:00:28.633Z,100753.28
2022-12-11T23:03:02.357Z,100764.19
2022-12-11T23:05:35.076Z,100745.56
2022-12-11T23:08:07.702Z,100748.88
2022-12-11T23:10:41.149Z,100760.50
2022-12-11T23:13:13.718Z,100748.75
2022-12-11T23:15:46.352Z,100752.31
2022-12-11T23:18:19.052Z,100745.94
2022-12-11T23:20:51.575Z,100757.41
2022-12-11T23:23:24.272Z,100737.06
2022-12-11T23:25:57.095Z,100761.66
2022-12-11T23:28:29.773Z,100761.38
2022-12-11T23:31:02.485Z,100754.72
2022-12-11T23:33:35.239Z,100750.88
2022-12-11T23:36:09.357Z,100756.91
2022-12-11T23:38:42.560Z,100751.34
2022-12-11T23:41:15.701Z,100766.34
2022-12-11T23:43:48.332Z,100753.06
2022-12-11T23:46:24.783Z,100751.13
2022-12-11T23:48:57.539Z,100759.13
2022-12-11T23:51:30.537Z,100741.69
2022-12-11T23:54:03.417Z,100757.59
2022-12-11T23:56:36.104Z,100761.31
2022-12-11T23:59:13.255Z,100765.38
